sensor_id;sensor_type;location;lat;lon;timestamp;temperature;humidity
12967;DHT22;6548;49.996;8.238;2022-09-20T00:01:28;10.60;99.90
12967;DHT22;6548;49.996;8.238;2022-09-20T00:03:57;10.50;99.90
12967;DHT22;6548;49.996;8.238;2022-09-20T00:06:30;10.40;99.90
12967;DHT22;6548;49.996;8.238;2022-09-20T00:08:56;10.40;99.90
12967;DHT22;6548;49.996;8.238;2022-09-20T00:11:26;10.40;99.90
12967;DHT22;6548;49.996;8.238;2022-09-20T00:13:54;10.30;99.90
12967;DHT22;6548;49.996;8.238;2022-09-20T00:16:30;10.30;99.90
12967;DHT22;6548;49.996;8.238;2022-09-20T00:18:57;10.30;99.90
12967;DHT22;6548;49.996;8.238;2022-09-20T00:21:26;10.20;99.90
12967;DHT22;6548;49.996;8.238;2022-09-20T00:23:52;10.20;99.90
12967;DHT22;6548;49.996;8.238;2022-09-20T00:26:18;10.20;99.90
12967;DHT22;6548;49.996;8.238;2022-09-20T00:28:44;10.40;99.90
12967;DHT22;6548;49.996;8.238;2022-09-20T00:31:11;10.40;99.90
12967;DHT22;6548;49.996;8.238;2022-09-20T00:33:37;10.30;99.90
12967;DHT22;6548;49.996;8.238;2022-09-20T00:36:21;10.40;99.90
12967;DHT22;6548;49.996;8.238;2022-09-20T00:38:47;10.40;99.90
12967;DHT22;6548;49.996;8.238;2022-09-20T00:41:13;10.30;99.90
12967;DHT22;6548;49.996;8.238;2022-09-20T00:43:43;10.30;99.90
12967;DHT22;6548;49.996;8.238;2022-09-20T00:48:50;10.20;99.90
12967;DHT22;6548;49.996;8.238;2022-09-20T00:51:21;10.10;99.90
12967;DHT22;6548;49.996;8.238;2022-09-20T00:53:48;10.10;99.90
12967;DHT22;6548;49.996;8.238;2022-09-20T00:56:18;10.00;99.90
12967;DHT22;6548;49.996;8.238;2022-09-20T00:59:18;10.00;99.90
12967;DHT22;6548;49.996;8.238;2022-09-20T01:01:43;9.90;99.90
12967;DHT22;6548;49.996;8.238;2022-09-20T01:04:11;9.90;99.90
12967;DHT22;6548;49.996;8.238;2022-09-20T01:06:38;9.90;99.90
12967;DHT22;6548;49.996;8.238;2022-09-20T01:09:05;9.90;99.90
12967;DHT22;6548;49.996;8.238;2022-09-20T01:11:33;9.90;99.90
12967;DHT22;6548;49.996;8.238;2022-09-20T01:13:59;10.00;99.90
12967;DHT22;6548;49.996;8.238;2022-09-20T01:16:25;9.90;99.90
12967;DHT22;6548;49.996;8.238;2022-09-20T01:18:52;10.00;99.90
12967;DHT22;6548;49.996;8.238;2022-09-20T01:21:20;9.90;99.90
12967;DHT22;6548;49.996;8.238;2022-09-20T01:24:22;9.90;99.90
12967;DHT22;6548;49.996;8.238;2022-09-20T01:32:18;9.80;99.90
12967;DHT22;6548;49.996;8.238;2022-09-20T01:34:46;9.80;99.90
12967;DHT22;6548;49.996;8.238;2022-09-20T01:37:26;9.80;99.90
12967;DHT22;6548;49.996;8.238;2022-09-20T01:40:22;9.80;99.90
12967;DHT22;6548;49.996;8.238;2022-09-20T01:43:08;9.70;99.90
12967;DHT22;6548;49.996;8.238;2022-09-20T01:45:43;9.70;99.90
12967;DHT22;6548;49.996;8.238;2022-09-20T01:48:17;9.60;99.90
12967;DHT22;6548;49.996;8.238;2022-09-20T02:11:14;9.50;99.90
12967;DHT22;6548;49.996;8.238;2022-09-20T02:36:50;9.30;99.90
12967;DHT22;6548;49.996;8.238;2022-09-20T02:39:25;9.30;99.90
12967;DHT22;6548;49.996;8.238;2022-09-20T02:55:41;9.00;99.90
12967;DHT22;6548;49.996;8.238;2022-09-20T02:58:23;8.90;99.90
12967;DHT22;6548;49.996;8.238;2022-09-20T03:03:56;8.80;99.90
12967;DHT22;6548;49.996;8.238;2022-09-20T03:12:49;8.90;99.90
12967;DHT22;6548;49.996;8.238;2022-09-20T03:18:23;8.80;99.90
12967;DHT22;6548;49.996;8.238;2022-09-20T03:21:21;8.80;99.90
12967;DHT22;6548;49.996;8.238;2022-09-20T03:27:06;8.90;99.90
12967;DHT22;6548;49.996;8.238;2022-09-20T03:46:17;8.80;99.90
12967;DHT22;6548;49.996;8.238;2022-09-20T03:48:55;8.70;99.90
12967;DHT22;6548;49.996;8.238;2022-09-20T03:54:30;8.60;99.90
12967;DHT22;6548;49.996;8.238;2022-09-20T03:59:46;8.60;99.90
12967;DHT22;6548;49.996;8.238;2022-09-20T04:04:57;8.50;99.90
12967;DHT22;6548;49.996;8.238;2022-09-20T04:07:31;8.60;99.90
12967;DHT22;6548;49.996;8.238;2022-09-20T04:13:06;8.50;99.90
12967;DHT22;6548;49.996;8.238;2022-09-20T04:15:56;8.40;99.90
12967;DHT22;6548;49.996;8.238;2022-09-20T04:21:13;8.30;99.90
12967;DHT22;6548;49.996;8.238;2022-09-20T04:26:19;8.20;99.90
12967;DHT22;6548;49.996;8.238;2022-09-20T04:28:57;8.20;99.90
12967;DHT22;6548;49.996;8.238;2022-09-20T04:31:41;8.20;99.90
12967;DHT22;6548;49.996;8.238;2022-09-20T04:34:32;8.40;99.90
12967;DHT22;6548;49.996;8.238;2022-09-20T04:37:26;8.40;99.90
12967;DHT22;6548;49.996;8.238;2022-09-20T04:46:21;8.60;99.90
12967;DHT22;6548;49.996;8.238;2022-09-20T05:00:21;9.00;99.90
12967;DHT22;6548;49.996;8.238;2022-09-20T05:11:24;9.40;99.90
12967;DHT22;6548;49.996;8.238;2022-09-20T05:14:05;9.50;99.90
12967;DHT22;6548;49.996;8.238;2022-09-20T05:22:07;9.70;99.90
12967;DHT22;6548;49.996;8.238;2022-09-20T05:30:22;9.80;99.90
12967;DHT22;6548;49.996;8.238;2022-09-20T05:33:14;9.90;99.90
12967;DHT22;6548;49.996;8.238;2022-09-20T05:35:54;9.90;99.90
12967;DHT22;6548;49.996;8.238;2022-09-20T05:38:38;10.00;99.90
12967;DHT22;6548;49.996;8.238;2022-09-20T05:49:40;10.00;99.90
12967;DHT22;6548;49.996;8.238;2022-09-20T05:55:16;10.10;99.90
12967;DHT22;6548;49.996;8.238;2022-09-20T05:57:59;10.10;99.90
12967;DHT22;6548;49.996;8.238;2022-09-20T06:00:40;10.10;99.90
12967;DHT22;6548;49.996;8.238;2022-09-20T06:20:30;10.50;99.90
12967;DHT22;6548;49.996;8.238;2022-09-20T06:22:58;10.90;99.90
12967;DHT22;6548;49.996;8.238;2022-09-20T06:25:31;11.30;99.90
12967;DHT22;6548;49.996;8.238;2022-09-20T06:28:04;11.60;99.90
12967;DHT22;6548;49.996;8.238;2022-09-20T06:30:39;11.80;99.90
12967;DHT22;6548;49.996;8.238;2022-09-20T06:33:25;12.20;99.90
12967;DHT22;6548;49.996;8.238;2022-09-20T06:36:00;12.50;99.90
12967;DHT22;6548;49.996;8.238;2022-09-20T06:41:45;12.90;99.90
12967;DHT22;6548;49.996;8.238;2022-09-20T06:44:11;13.20;99.90
12967;DHT22;6548;49.996;8.238;2022-09-20T06:46:37;13.30;99.90
12967;DHT22;6548;49.996;8.238;2022-09-20T06:49:03;13.40;99.90
12967;DHT22;6548;49.996;8.238;2022-09-20T06:51:34;13.90;99.90
12967;DHT22;6548;49.996;8.238;2022-09-20T06:54:00;13.60;99.90
12967;DHT22;6548;49.996;8.238;2022-09-20T06:56:28;13.50;99.90
12967;DHT22;6548;49.996;8.238;2022-09-20T06:58:55;13.40;99.90
12967;DHT22;6548;49.996;8.238;2022-09-20T07:01:21;13.50;99.90
12967;DHT22;6548;49.996;8.238;2022-09-20T07:03:47;13.50;99.90
12967;DHT22;6548;49.996;8.238;2022-09-20T07:06:13;13.60;99.90
12967;DHT22;6548;49.996;8.238;2022-09-20T07:08:44;13.60;99.90
12967;DHT22;6548;49.996;8.238;2022-09-20T07:11:13;13.70;99.90
12967;DHT22;6548;49.996;8.238;2022-09-20T07:13:40;13.70;99.90
12967;DHT22;6548;49.996;8.238;2022-09-20T07:16:07;14.40;99.90
12967;DHT22;6548;49.996;8.238;2022-09-20T07:18:36;14.00;99.90
12967;DHT22;6548;49.996;8.238;2022-09-20T07:21:05;13.70;99.90
12967;DHT22;6548;49.996;8.238;2022-09-20T07:23:39;14.40;99.90
12967;DHT22;6548;49.996;8.238;2022-09-20T07:26:05;15.10;99.90
12967;DHT22;6548;49.996;8.238;2022-09-20T07:31:05;15.00;99.90
12967;DHT22;6548;49.996;8.238;2022-09-20T07:33:31;14.50;99.90
12967;DHT22;6548;49.996;8.238;2022-09-20T07:36:04;15.70;99.90
12967;DHT22;6548;49.996;8.238;2022-09-20T07:38:30;14.60;99.90
12967;DHT22;6548;49.996;8.238;2022-09-20T07:41:00;14.70;99.90
12967;DHT22;6548;49.996;8.238;2022-09-20T07:43:27;14.50;99.90
12967;DHT22;6548;49.996;8.238;2022-09-20T07:45:54;15.20;99.90
12967;DHT22;6548;49.996;8.238;2022-09-20T07:48:25;15.30;99.90
12967;DHT22;6548;49.996;8.238;2022-09-20T07:51:01;15.60;99.90
12967;DHT22;6548;49.996;8.238;2022-09-20T07:53:28;17.00;99.90
12967;DHT22;6548;49.996;8.238;2022-09-20T07:58:22;16.20;99.90
12967;DHT22;6548;49.996;8.238;2022-09-20T08:00:56;16.20;99.90
12967;DHT22;6548;49.996;8.238;2022-09-20T08:03:22;16.40;99.90
12967;DHT22;6548;49.996;8.238;2022-09-20T08:05:49;15.90;99.90
12967;DHT22;6548;49.996;8.238;2022-09-20T08:08:18;18.00;99.90
12967;DHT22;6548;49.996;8.238;2022-09-20T08:10:45;16.40;99.90
12967;DHT22;6548;49.996;8.238;2022-09-20T08:13:12;16.90;99.90
12967;DHT22;6548;49.996;8.238;2022-09-20T08:15:38;16.00;99.90
12967;DHT22;6548;49.996;8.238;2022-09-20T08:18:05;15.50;99.90
12967;DHT22;6548;49.996;8.238;2022-09-20T08:20:35;15.40;99.90
12967;DHT22;6548;49.996;8.238;2022-09-20T08:23:01;15.60;99.90
12967;DHT22;6548;49.996;8.238;2022-09-20T08:25:27;15.50;99.90
12967;DHT22;6548;49.996;8.238;2022-09-20T08:27:53;16.00;99.90
12967;DHT22;6548;49.996;8.238;2022-09-20T08:30:19;16.50;99.90
12967;DHT22;6548;49.996;8.238;2022-09-20T08:32:45;16.80;99.90
12967;DHT22;6548;49.996;8.238;2022-09-20T08:35:10;16.90;99.90
12967;DHT22;6548;49.996;8.238;2022-09-20T08:37:36;17.40;99.90
12967;DHT22;6548;49.996;8.238;2022-09-20T08:40:02;17.90;99.90
12967;DHT22;6548;49.996;8.238;2022-09-20T08:42:33;17.80;99.90
12967;DHT22;6548;49.996;8.238;2022-09-20T08:45:21;18.20;99.90
12967;DHT22;6548;49.996;8.238;2022-09-20T08:47:55;19.40;99.90
12967;DHT22;6548;49.996;8.238;2022-09-20T08:50:22;19.90;99.90
12967;DHT22;6548;49.996;8.238;2022-09-20T08:52:51;20.10;99.90
12967;DHT22;6548;49.996;8.238;2022-09-20T08:55:24;20.70;99.90
12967;DHT22;6548;49.996;8.238;2022-09-20T08:57:54;20.50;99.90
12967;DHT22;6548;49.996;8.238;2022-09-20T09:00:27;20.00;99.90
12967;DHT22;6548;49.996;8.238;2022-09-20T09:02:57;19.40;99.90
12967;DHT22;6548;49.996;8.238;2022-09-20T09:07:51;17.90;99.90
12967;DHT22;6548;49.996;8.238;2022-09-20T09:10:16;17.70;99.90
12967;DHT22;6548;49.996;8.238;2022-09-20T09:12:43;16.60;99.90
12967;DHT22;6548;49.996;8.238;2022-09-20T09:15:24;15.70;99.90
12967;DHT22;6548;49.996;8.238;2022-09-20T09:17:52;14.70;99.90
12967;DHT22;6548;49.996;8.238;2022-09-20T09:20:22;14.10;99.90
12967;DHT22;6548;49.996;8.238;2022-09-20T09:23:04;13.60;99.90
12967;DHT22;6548;49.996;8.238;2022-09-20T09:25:31;13.30;99.90
12967;DHT22;6548;49.996;8.238;2022-09-20T09:30:41;12.90;99.90
12967;DHT22;6548;49.996;8.238;2022-09-20T09:33:29;12.70;99.90
12967;DHT22;6548;49.996;8.238;2022-09-20T09:36:05;12.60;99.90
12967;DHT22;6548;49.996;8.238;2022-09-20T09:38:36;12.50;99.90
12967;DHT22;6548;49.996;8.238;2022-09-20T09:41:05;12.40;99.90
12967;DHT22;6548;49.996;8.238;2022-09-20T09:43:35;12.40;99.90
12967;DHT22;6548;49.996;8.238;2022-09-20T09:46:21;12.40;99.90
12967;DHT22;6548;49.996;8.238;2022-09-20T09:49:07;12.40;99.90
12967;DHT22;6548;49.996;8.238;2022-09-20T09:51:34;12.60;99.90
12967;DHT22;6548;49.996;8.238;2022-09-20T09:54:01;13.10;99.90
12967;DHT22;6548;49.996;8.238;2022-09-20T09:59:36;14.40;99.90
12967;DHT22;6548;49.996;8.238;2022-09-20T10:04:51;15.50;99.90
12967;DHT22;6548;49.996;8.238;2022-09-20T10:12:38;15.00;99.90
12967;DHT22;6548;49.996;8.238;2022-09-20T10:15:23;14.90;99.90
12967;DHT22;6548;49.996;8.238;2022-09-20T10:24:06;14.60;99.90
12967;DHT22;6548;49.996;8.238;2022-09-20T10:26:37;14.60;99.90
12967;DHT22;6548;49.996;8.238;2022-09-20T10:34:27;16.20;99.90
12967;DHT22;6548;49.996;8.238;2022-09-20T10:37:00;17.20;99.90
12967;DHT22;6548;49.996;8.238;2022-09-20T10:39:38;16.90;99.90
12967;DHT22;6548;49.996;8.238;2022-09-20T10:50:52;16.10;99.90
12967;DHT22;6548;49.996;8.238;2022-09-20T10:56:32;16.20;99.90
12967;DHT22;6548;49.996;8.238;2022-09-20T11:10:23;15.90;99.90
12967;DHT22;6548;49.996;8.238;2022-09-20T11:16:20;15.00;99.90
12967;DHT22;6548;49.996;8.238;2022-09-20T11:19:22;15.50;99.90
12967;DHT22;6548;49.996;8.238;2022-09-20T11:22:09;15.10;99.90
12967;DHT22;6548;49.996;8.238;2022-09-20T11:24:41;15.50;99.90
12967;DHT22;6548;49.996;8.238;2022-09-20T11:27:22;15.90;99.90
12967;DHT22;6548;49.996;8.238;2022-09-20T11:32:21;16.80;99.90
12967;DHT22;6548;49.996;8.238;2022-09-20T11:34:51;17.50;99.90
12967;DHT22;6548;49.996;8.238;2022-09-20T11:37:18;17.00;99.90
12967;DHT22;6548;49.996;8.238;2022-09-20T11:39:46;18.20;99.90
12967;DHT22;6548;49.996;8.238;2022-09-20T11:42:17;17.50;99.90
12967;DHT22;6548;49.996;8.238;2022-09-20T11:44:44;16.70;99.90
12967;DHT22;6548;49.996;8.238;2022-09-20T11:50:28;17.00;99.90
12967;DHT22;6548;49.996;8.238;2022-09-20T11:56:05;18.70;99.90
12967;DHT22;6548;49.996;8.238;2022-09-20T11:58:43;19.40;99.90
12967;DHT22;6548;49.996;8.238;2022-09-20T12:01:12;19.80;99.90
12967;DHT22;6548;49.996;8.238;2022-09-20T12:03:40;19.50;99.90
12967;DHT22;6548;49.996;8.238;2022-09-20T12:06:20;19.10;99.90
12967;DHT22;6548;49.996;8.238;2022-09-20T12:08:50;18.30;99.90
12967;DHT22;6548;49.996;8.238;2022-09-20T12:11:15;17.50;99.90
12967;DHT22;6548;49.996;8.238;2022-09-20T12:13:52;17.30;99.90
12967;DHT22;6548;49.996;8.238;2022-09-20T12:16:40;19.10;99.90
12967;DHT22;6548;49.996;8.238;2022-09-20T12:19:13;17.60;99.90
12967;DHT22;6548;49.996;8.238;2022-09-20T12:24:35;16.80;99.90
12967;DHT22;6548;49.996;8.238;2022-09-20T12:30:18;16.90;99.90
12967;DHT22;6548;49.996;8.238;2022-09-20T12:32:50;16.60;99.90
12967;DHT22;6548;49.996;8.238;2022-09-20T12:38:35;16.50;99.90
12967;DHT22;6548;49.996;8.238;2022-09-20T12:41:12;16.00;99.90
12967;DHT22;6548;49.996;8.238;2022-09-20T12:43:49;16.30;99.90
12967;DHT22;6548;49.996;8.238;2022-09-20T12:46:20;15.90;99.90
12967;DHT22;6548;49.996;8.238;2022-09-20T12:48:46;15.90;99.90
12967;DHT22;6548;49.996;8.238;2022-09-20T12:51:21;15.80;99.90
12967;DHT22;6548;49.996;8.238;2022-09-20T12:54:09;15.80;99.90
12967;DHT22;6548;49.996;8.238;2022-09-20T12:56:38;16.10;99.90
12967;DHT22;6548;49.996;8.238;2022-09-20T12:59:21;16.00;99.90
12967;DHT22;6548;49.996;8.238;2022-09-20T13:01:48;15.80;99.90
12967;DHT22;6548;49.996;8.238;2022-09-20T13:07:39;15.90;99.90
12967;DHT22;6548;49.996;8.238;2022-09-20T13:10:33;16.20;99.90
12967;DHT22;6548;49.996;8.238;2022-09-20T13:13:12;17.60;99.90
12967;DHT22;6548;49.996;8.238;2022-09-20T13:15:39;16.30;99.90
12967;DHT22;6548;49.996;8.238;2022-09-20T13:18:05;16.20;99.90
12967;DHT22;6548;49.996;8.238;2022-09-20T13:20:31;16.00;99.90
12967;DHT22;6548;49.996;8.238;2022-09-20T13:23:00;17.30;99.90
12967;DHT22;6548;49.996;8.238;2022-09-20T13:25:28;16.40;99.90
12967;DHT22;6548;49.996;8.238;2022-09-20T13:28:13;16.50;99.90
12967;DHT22;6548;49.996;8.238;2022-09-20T13:30:40;16.30;99.90
12967;DHT22;6548;49.996;8.238;2022-09-20T13:33:21;17.40;99.90
12967;DHT22;6548;49.996;8.238;2022-09-20T13:35:50;17.70;99.90
12967;DHT22;6548;49.996;8.238;2022-09-20T13:38:21;17.50;99.90
12967;DHT22;6548;49.996;8.238;2022-09-20T13:40:50;17.30;99.90
12967;DHT22;6548;49.996;8.238;2022-09-20T13:43:26;17.90;99.90
12967;DHT22;6548;49.996;8.238;2022-09-20T13:46:13;16.80;99.90
12967;DHT22;6548;49.996;8.238;2022-09-20T13:49:13;16.60;99.90
12967;DHT22;6548;49.996;8.238;2022-09-20T13:51:45;16.60;99.90
12967;DHT22;6548;49.996;8.238;2022-09-20T13:54:30;15.80;99.90
12967;DHT22;6548;49.996;8.238;2022-09-20T13:57:01;16.10;99.90
12967;DHT22;6548;49.996;8.238;2022-09-20T13:59:32;16.40;99.90
12967;DHT22;6548;49.996;8.238;2022-09-20T14:01:58;18.00;99.90
12967;DHT22;6548;49.996;8.238;2022-09-20T14:04:27;16.70;99.90
12967;DHT22;6548;49.996;8.238;2022-09-20T14:06:55;17.00;99.90
12967;DHT22;6548;49.996;8.238;2022-09-20T14:09:33;16.90;99.90
12967;DHT22;6548;49.996;8.238;2022-09-20T14:12:00;16.50;99.90
12967;DHT22;6548;49.996;8.238;2022-09-20T14:14:27;16.30;99.90
12967;DHT22;6548;49.996;8.238;2022-09-20T14:16:55;16.30;99.90
12967;DHT22;6548;49.996;8.238;2022-09-20T14:19:26;16.20;99.90
12967;DHT22;6548;49.996;8.238;2022-09-20T14:21:53;16.10;99.90
12967;DHT22;6548;49.996;8.238;2022-09-20T14:24:26;16.80;99.90
12967;DHT22;6548;49.996;8.238;2022-09-20T14:27:14;17.20;99.90
12967;DHT22;6548;49.996;8.238;2022-09-20T14:29:51;15.80;99.90
12967;DHT22;6548;49.996;8.238;2022-09-20T14:37:39;16.00;99.90
12967;DHT22;6548;49.996;8.238;2022-09-20T14:40:20;15.00;99.90
12967;DHT22;6548;49.996;8.238;2022-09-20T14:45:49;16.40;99.90
12967;DHT22;6548;49.996;8.238;2022-09-20T14:50:49;15.90;99.90
12967;DHT22;6548;49.996;8.238;2022-09-20T14:53:28;16.10;99.90
12967;DHT22;6548;49.996;8.238;2022-09-20T14:56:10;14.80;99.90
12967;DHT22;6548;49.996;8.238;2022-09-20T14:59:18;14.70;99.90
12967;DHT22;6548;49.996;8.238;2022-09-20T15:01:58;14.70;99.90
12967;DHT22;6548;49.996;8.238;2022-09-20T15:04:25;14.90;99.90
12967;DHT22;6548;49.996;8.238;2022-09-20T15:06:56;16.20;99.90
12967;DHT22;6548;49.996;8.238;2022-09-20T18:31:21;11.60;99.90
12967;DHT22;6548;49.996;8.238;2022-09-20T18:33:51;11.60;99.90
12967;DHT22;6548;49.996;8.238;2022-09-20T18:36:17;11.60;99.90
12967;DHT22;6548;49.996;8.238;2022-09-20T18:38:43;12.80;99.90
12967;DHT22;6548;49.996;8.238;2022-09-20T18:41:10;11.60;99.90
12967;DHT22;6548;49.996;8.238;2022-09-20T18:43:39;11.50;99.90
12967;DHT22;6548;49.996;8.238;2022-09-20T18:46:09;11.50;99.90
12967;DHT22;6548;49.996;8.238;2022-09-20T18:48:35;11.50;99.90
12967;DHT22;6548;49.996;8.238;2022-09-20T18:51:05;11.60;99.90
12967;DHT22;6548;49.996;8.238;2022-09-20T18:53:33;11.60;99.90
12967;DHT22;6548;49.996;8.238;2022-09-20T18:56:22;11.60;99.90
12967;DHT22;6548;49.996;8.238;2022-09-20T18:58:50;11.70;99.90
12967;DHT22;6548;49.996;8.238;2022-09-20T19:15:01;11.80;99.90
12967;DHT22;6548;49.996;8.238;2022-09-20T19:20:45;11.80;99.90
12967;DHT22;6548;49.996;8.238;2022-09-20T19:26:20;11.80;99.90
12967;DHT22;6548;49.996;8.238;2022-09-20T19:28:51;11.80;99.90
12967;DHT22;6548;49.996;8.238;2022-09-20T19:31:31;11.80;99.90
12967;DHT22;6548;49.996;8.238;2022-09-20T19:33:59;11.80;99.90
12967;DHT22;6548;49.996;8.238;2022-09-20T19:36:38;11.80;99.90
12967;DHT22;6548;49.996;8.238;2022-09-20T19:39:12;11.70;99.90
12967;DHT22;6548;49.996;8.238;2022-09-20T19:41:55;12.70;99.90
12967;DHT22;6548;49.996;8.238;2022-09-20T19:47:00;11.50;99.90
12967;DHT22;6548;49.996;8.238;2022-09-20T19:49:52;11.50;99.90
12967;DHT22;6548;49.996;8.238;2022-09-20T19:52:17;11.50;99.90
12967;DHT22;6548;49.996;8.238;2022-09-20T19:54:43;11.50;99.90
12967;DHT22;6548;49.996;8.238;2022-09-20T19:57:34;11.40;99.90
12967;DHT22;6548;49.996;8.238;2022-09-20T20:00:01;11.50;99.90
12967;DHT22;6548;49.996;8.238;2022-09-20T20:02:26;11.40;99.90
12967;DHT22;6548;49.996;8.238;2022-09-20T20:04:52;11.30;99.90
12967;DHT22;6548;49.996;8.238;2022-09-20T20:07:35;11.30;99.90
12967;DHT22;6548;49.996;8.238;2022-09-20T20:16:01;11.10;99.90
12967;DHT22;6548;49.996;8.238;2022-09-20T20:21:28;11.10;99.90
12967;DHT22;6548;49.996;8.238;2022-09-20T20:26:44;11.00;99.90
12967;DHT22;6548;49.996;8.238;2022-09-20T20:29:10;10.90;99.90
12967;DHT22;6548;49.996;8.238;2022-09-20T20:31:36;10.90;99.90
12967;DHT22;6548;49.996;8.238;2022-09-20T20:34:02;10.80;99.90
12967;DHT22;6548;49.996;8.238;2022-09-20T20:36:27;10.70;99.90
12967;DHT22;6548;49.996;8.238;2022-09-20T20:38:53;10.60;99.90
12967;DHT22;6548;49.996;8.238;2022-09-20T20:41:19;10.60;99.90
12967;DHT22;6548;49.996;8.238;2022-09-20T20:44:07;10.50;99.90
12967;DHT22;6548;49.996;8.238;2022-09-20T20:50:16;10.40;99.90
12967;DHT22;6548;49.996;8.238;2022-09-20T20:52:42;10.30;99.90
12967;DHT22;6548;49.996;8.238;2022-09-20T20:55:07;10.30;99.90
12967;DHT22;6548;49.996;8.238;2022-09-20T20:57:33;10.20;99.90
12967;DHT22;6548;49.996;8.238;2022-09-20T20:59:59;10.20;99.90
12967;DHT22;6548;49.996;8.238;2022-09-20T21:02:25;10.20;99.90
12967;DHT22;6548;49.996;8.238;2022-09-20T21:04:50;10.10;99.90
12967;DHT22;6548;49.996;8.238;2022-09-20T21:07:16;10.10;99.90
12967;DHT22;6548;49.996;8.238;2022-09-20T21:09:42;10.10;99.90
12967;DHT22;6548;49.996;8.238;2022-09-20T21:12:07;10.20;99.90
12967;DHT22;6548;49.996;8.238;2022-09-20T21:14:33;10.00;99.90
12967;DHT22;6548;49.996;8.238;2022-09-20T21:16:59;10.00;99.90
12967;DHT22;6548;49.996;8.238;2022-09-20T21:19:26;9.90;99.90
12967;DHT22;6548;49.996;8.238;2022-09-20T21:21:52;9.80;99.90
12967;DHT22;6548;49.996;8.238;2022-09-20T21:24:17;9.70;99.90
12967;DHT22;6548;49.996;8.238;2022-09-20T21:26:43;9.70;99.90
12967;DHT22;6548;49.996;8.238;2022-09-20T21:29:11;9.60;99.90
12967;DHT22;6548;49.996;8.238;2022-09-20T21:31:39;9.60;99.90
12967;DHT22;6548;49.996;8.238;2022-09-20T21:34:06;9.60;99.90
12967;DHT22;6548;49.996;8.238;2022-09-20T21:36:33;9.50;99.90
12967;DHT22;6548;49.996;8.238;2022-09-20T21:39:00;9.50;99.90
12967;DHT22;6548;49.996;8.238;2022-09-20T21:41:33;9.50;99.90
12967;DHT22;6548;49.996;8.238;2022-09-20T21:44:00;9.40;99.90
12967;DHT22;6548;49.996;8.238;2022-09-20T21:46:31;9.50;99.90
12967;DHT22;6548;49.996;8.238;2022-09-20T21:49:03;9.40;99.90
12967;DHT22;6548;49.996;8.238;2022-09-20T21:51:30;9.30;99.90
12967;DHT22;6548;49.996;8.238;2022-09-20T21:53:57;9.30;99.90
12967;DHT22;6548;49.996;8.238;2022-09-20T21:56:25;9.20;99.90
12967;DHT22;6548;49.996;8.238;2022-09-20T21:58:52;9.10;99.90
12967;DHT22;6548;49.996;8.238;2022-09-20T22:01:22;9.20;99.90
12967;DHT22;6548;49.996;8.238;2022-09-20T22:03:50;9.00;99.90
12967;DHT22;6548;49.996;8.238;2022-09-20T22:06:21;9.10;99.90
12967;DHT22;6548;49.996;8.238;2022-09-20T22:08:57;9.10;99.90
12967;DHT22;6548;49.996;8.238;2022-09-20T22:11:25;9.10;99.90
12967;DHT22;6548;49.996;8.238;2022-09-20T22:13:52;9.00;99.90
12967;DHT22;6548;49.996;8.238;2022-09-20T22:16:47;9.00;99.90
12967;DHT22;6548;49.996;8.238;2022-09-20T22:19:57;9.00;99.90
12967;DHT22;6548;49.996;8.238;2022-09-20T22:22:23;9.00;99.90
12967;DHT22;6548;49.996;8.238;2022-09-20T22:24:49;8.90;99.90
12967;DHT22;6548;49.996;8.238;2022-09-20T22:27:14;9.00;99.90
12967;DHT22;6548;49.996;8.238;2022-09-20T22:29:40;9.00;99.90
12967;DHT22;6548;49.996;8.238;2022-09-20T22:32:06;8.90;99.90
12967;DHT22;6548;49.996;8.238;2022-09-20T22:34:48;8.80;99.90
12967;DHT22;6548;49.996;8.238;2022-09-20T22:37:13;8.70;99.90
12967;DHT22;6548;49.996;8.238;2022-09-20T22:39:39;8.60;99.90
12967;DHT22;6548;49.996;8.238;2022-09-20T22:42:04;8.60;99.90
12967;DHT22;6548;49.996;8.238;2022-09-20T22:44:30;8.60;99.90
12967;DHT22;6548;49.996;8.238;2022-09-20T22:46:55;8.50;99.90
12967;DHT22;6548;49.996;8.238;2022-09-20T22:49:29;8.50;99.90
12967;DHT22;6548;49.996;8.238;2022-09-20T22:51:54;8.40;99.90
12967;DHT22;6548;49.996;8.238;2022-09-20T22:54:20;8.40;99.90
12967;DHT22;6548;49.996;8.238;2022-09-20T22:56:45;8.40;99.90
12967;DHT22;6548;49.996;8.238;2022-09-20T22:59:13;8.40;99.90
12967;DHT22;6548;49.996;8.238;2022-09-20T23:01:43;8.30;99.90
12967;DHT22;6548;49.996;8.238;2022-09-20T23:04:11;8.30;99.90
12967;DHT22;6548;49.996;8.238;2022-09-20T23:06:49;8.10;99.90
12967;DHT22;6548;49.996;8.238;2022-09-20T23:09:19;8.10;99.90
12967;DHT22;6548;49.996;8.238;2022-09-20T23:11:46;8.10;99.90
12967;DHT22;6548;49.996;8.238;2022-09-20T23:14:15;8.30;99.90
12967;DHT22;6548;49.996;8.238;2022-09-20T23:16:42;8.20;99.90
12967;DHT22;6548;49.996;8.238;2022-09-20T23:19:08;8.10;99.90
12967;DHT22;6548;49.996;8.238;2022-09-20T23:21:36;8.10;99.90
12967;DHT22;6548;49.996;8.238;2022-09-20T23:24:05;8.20;99.90
12967;DHT22;6548;49.996;8.238;2022-09-20T23:26:33;8.10;99.90
12967;DHT22;6548;49.996;8.238;2022-09-20T23:29:02;8.10;99.90
12967;DHT22;6548;49.996;8.238;2022-09-20T23:31:30;8.10;99.90
12967;DHT22;6548;49.996;8.238;2022-09-20T23:33:58;8.10;99.90
12967;DHT22;6548;49.996;8.238;2022-09-20T23:36:26;8.10;99.90
12967;DHT22;6548;49.996;8.238;2022-09-20T23:38:52;8.10;99.90
12967;DHT22;6548;49.996;8.238;2022-09-20T23:41:21;8.00;99.90
12967;DHT22;6548;49.996;8.238;2022-09-20T23:43:47;8.00;99.90
12967;DHT22;6548;49.996;8.238;2022-09-20T23:46:15;8.10;99.90
12967;DHT22;6548;49.996;8.238;2022-09-20T23:48:41;8.00;99.90
12967;DHT22;6548;49.996;8.238;2022-09-20T23:51:08;8.00;99.90
12967;DHT22;6548;49.996;8.238;2022-09-20T23:53:35;8.00;99.90
12967;DHT22;6548;49.996;8.238;2022-09-20T23:56:00;7.90;99.90
12967;DHT22;6548;49.996;8.238;2022-09-20T23:58:26;7.80;99.90
